Time;durP1;ratioP1;P1;durP2;ratioP2;P2;SDS_P1;SDS_P2;PMS_P1;PMS_P2;Temp;Humidity;BMP_temperature;BMP_pressure;BME280_temperature;BME280_humidity;BME280_pressure;Samples;Min_cycle;Max_cycle;Signal;HPM_P1;HPM_P2
2022/05/11 00:00:06;;;;;;;4.32;3.88;;;;;;;15.77;85.03;96830.63;5055926;28;20643;-48
2022/05/11 00:02:33;;;;;;;4.38;3.80;;;;;;;15.59;87.12;96827.31;5057029;28;20207;-49
2022/05/11 00:05:00;;;;;;;5.20;4.80;;;;;;;15.62;86.55;96824.34;5046723;28;20203;-49
2022/05/11 00:07:26;;;;;;;4.57;4.17;;;;;;;15.54;87.04;96821.69;5057043;28;20199;-49
2022/05/11 00:09:53;;;;;;;4.63;4.20;;;;;;;15.53;87.58;96822.69;5056432;28;20640;-49
2022/05/11 00:12:19;;;;;;;4.18;3.88;;;;;;;15.50;87.99;96820.34;5055676;28;20206;-49
2022/05/11 00:14:47;;;;;;;4.53;4.20;;;;;;;15.42;88.52;96823.00;5056387;28;20350;-49
2022/05/11 00:17:16;;;;;;;4.50;4.10;;;;;;;15.34;89.64;96809.66;5056189;28;20223;-49
2022/05/11 00:19:43;;;;;;;4.63;4.23;;;;;;;15.33;89.22;96810.69;5055708;28;20206;-49
2022/05/11 00:22:09;;;;;;;4.93;4.53;;;;;;;15.37;88.87;96818.16;5054550;28;20243;-49
2022/05/11 00:24:36;;;;;;;4.33;4.03;;;;;;;15.34;90.01;96809.66;5056452;28;20214;-49
2022/05/11 00:27:03;;;;;;;4.87;4.47;;;;;;;15.30;89.28;96797.72;5056268;28;20210;-48
2022/05/11 00:29:30;;;;;;;4.37;4.07;;;;;;;15.31;89.60;96796.69;5056091;28;20211;-49
2022/05/11 00:32:01;;;;;;;4.53;4.23;;;;;;;15.30;89.99;96800.38;5056494;28;20210;-48
2022/05/11 00:34:28;;;;;;;4.67;4.30;;;;;;;15.26;89.85;96807.03;5056242;28;20201;-49
2022/05/11 00:36:55;;;;;;;5.80;4.13;;;;;;;15.23;90.21;96797.53;5055162;28;20255;-48
2022/05/11 00:39:23;;;;;;;3.92;3.63;;;;;;;15.22;90.61;96795.06;5059110;28;20215;-48
2022/05/11 00:41:51;;;;;;;4.43;4.05;;;;;;;15.18;91.04;96801.72;5061359;28;20224;-51
2022/05/11 00:44:18;;;;;;;4.80;4.40;;;;;;;15.11;91.92;96808.72;5060070;28;20203;-49
2022/05/11 00:46:47;;;;;;;4.57;4.28;;;;;;;15.10;91.74;96807.03;5043216;28;20590;-49
2022/05/11 00:49:36;;;;;;;4.68;4.28;;;;;;;15.01;93.09;96802.72;5056913;28;20218;-48
2022/05/11 00:52:06;;;;;;;4.17;3.87;;;;;;;15.05;92.16;96798.72;5056977;28;20290;-49
2022/05/11 00:54:35;;;;;;;4.73;4.33;;;;;;;15.08;91.74;96803.72;5057116;28;20199;-49
2022/05/11 00:57:03;;;;;;;4.15;3.85;;;;;;;15.06;91.78;96798.53;5057649;28;20556;-48
2022/05/11 00:59:33;;;;;;;4.97;4.28;;;;;;;14.97;92.96;96801.38;5057269;28;20207;-49
2022/05/11 01:02:04;;;;;;;4.50;4.10;;;;;;;14.95;92.65;96793.53;5057588;28;20230;-49
2022/05/11 01:04:33;;;;;;;4.40;4.10;;;;;;;14.85;94.14;96787.56;5058247;28;20195;-49
2022/05/11 01:07:01;;;;;;;5.05;4.75;;;;;;;14.84;95.08;96786.72;5069281;28;20255;-48
2022/05/11 01:09:29;;;;;;;4.73;4.40;;;;;;;14.82;94.51;96786.06;5077103;28;20198;-49
2022/05/11 01:11:59;;;;;;;6.10;4.63;;;;;;;14.77;94.89;96791.03;5063570;28;20199;-49
2022/05/11 01:14:29;;;;;;;5.03;4.60;;;;;;;14.74;95.09;96785.22;5069008;28;20218;-49
2022/05/11 01:16:57;;;;;;;4.88;4.55;;;;;;;14.80;94.52;96789.91;5071485;28;20223;-48
2022/05/11 01:19:26;;;;;;;4.90;4.40;;;;;;;14.68;95.18;96792.03;5075223;28;20199;-49
2022/05/11 01:21:57;;;;;;;4.90;4.60;;;;;;;14.74;94.15;96786.06;5075143;28;20231;-49
2022/05/11 01:24:33;;;;;;;5.47;5.07;;;;;;;14.77;95.08;96791.03;5066311;28;20252;-48
2022/05/11 01:26:59;;;;;;;5.07;4.50;;;;;;;14.72;94.62;96788.06;5061274;28;20268;-49
2022/05/11 01:29:27;;;;;;;5.00;4.50;;;;;;;14.67;95.54;96792.19;5053789;28;20200;-49
2022/05/11 01:31:54;;;;;;;5.43;4.30;;;;;;;14.60;95.89;96792.03;5063878;28;20203;-49
2022/05/11 01:34:24;;;;;;;4.80;4.50;;;;;;;14.60;96.17;96784.03;5075499;28;20234;-49
2022/05/11 01:36:52;;;;;;;4.78;4.43;;;;;;;14.61;95.56;96784.88;5073815;28;20567;-48
2022/05/11 01:39:19;;;;;;;5.00;4.60;;;;;;;14.64;95.74;96795.19;5059606;28;20203;-48
2022/05/11 01:41:51;;;;;;;4.50;4.20;;;;;;;14.61;96.48;96792.88;5061772;28;20218;-49
2022/05/11 01:44:21;;;;;;;5.70;4.80;;;;;;;14.65;95.52;96797.69;5059652;28;20207;-48
2022/05/11 01:46:49;;;;;;;4.93;4.47;;;;;;;14.64;95.16;96795.19;5042409;28;20203;-49
2022/05/11 01:49:16;;;;;;;5.97;5.00;;;;;;;14.61;95.32;96793.69;5063717;28;20289;-48
2022/05/11 01:51:43;;;;;;;5.17;4.67;;;;;;;14.61;95.98;96792.88;5067489;28;20206;-48
2022/05/11 01:54:10;;;;;;;5.37;4.97;;;;;;;14.57;96.78;96794.19;5065984;28;20218;-49
2022/05/11 01:56:37;;;;;;;6.35;5.15;;;;;;;14.56;96.61;96784.56;5058479;28;20680;-49
2022/05/11 01:59:05;;;;;;;5.17;4.77;;;;;;;14.60;96.01;96786.69;5058360;28;20678;-49
2022/05/11 02:01:35;;;;;;;4.97;4.67;;;;;;;14.56;97.13;96781.91;5058533;28;20215;-48
2022/05/11 02:04:01;;;;;;;4.60;4.20;;;;;;;14.56;96.87;96784.56;5063919;28;20187;-48
2022/05/11 02:09:12;;;;;;;5.10;4.60;;;;;;;14.60;96.25;96788.53;5068790;28;20198;-49
2022/05/11 02:11:39;;;;;;;5.10;4.60;;;;;;;14.53;96.34;96788.34;5069109;28;20199;-48
2022/05/11 02:14:07;;;;;;;4.80;4.40;;;;;;;14.51;96.59;96794.84;5058905;28;20203;-48
2022/05/11 02:16:33;;;;;;;4.73;4.27;;;;;;;14.51;96.99;96784.19;5058492;28;20535;-49
2022/05/11 02:19:00;;;;;;;4.23;4.03;;;;;;;14.44;97.93;96781.38;5058620;28;20234;-49
2022/05/11 02:21:28;;;;;;;4.67;4.17;;;;;;;14.52;96.77;96786.72;5058161;28;20398;-48
2022/05/11 02:23:55;;;;;;;4.67;4.37;;;;;;;14.47;96.34;96780.19;5058726;28;20515;-48
2022/05/11 02:26:23;;;;;;;5.07;4.67;;;;;;;14.36;97.21;96784.00;5058521;28;20233;-48
2022/05/11 02:28:49;;;;;;;4.63;4.33;;;;;;;14.32;98.27;96782.63;5057460;28;20207;-48
2022/05/11 02:31:18;;;;;;;5.73;4.73;;;;;;;14.35;97.87;96783.16;5058303;28;20562;-49
2022/05/11 02:33:45;;;;;;;4.80;4.30;;;;;;;14.35;98.44;96788.50;5045387;28;20207;-48
2022/05/11 02:36:12;;;;;;;5.10;4.60;;;;;;;14.29;98.04;96782.97;5057917;28;20631;-48
2022/05/11 02:38:41;;;;;;;4.53;4.23;;;;;;;14.31;98.01;96795.09;5057890;28;20238;-49
2022/05/11 02:41:08;;;;;;;5.77;4.60;;;;;;;14.22;98.51;96790.75;5058146;28;20226;-47
2022/05/11 02:43:35;;;;;;;4.80;4.40;;;;;;;14.31;97.49;96789.78;5058353;28;20265;-48
2022/05/11 02:46:02;;;;;;;4.70;4.40;;;;;;;14.27;97.56;96792.94;5057723;28;20202;-48
2022/05/11 02:48:31;;;;;;;4.70;4.40;;;;;;;14.20;98.21;96794.59;5057775;28;20196;-49
2022/05/11 02:51:00;;;;;;;4.73;4.33;;;;;;;14.18;98.04;96793.91;5057824;28;20542;-48
2022/05/11 02:53:31;;;;;;;4.80;4.40;;;;;;;14.10;99.22;96801.88;5058036;28;20214;-48
2022/05/11 02:55:59;;;;;;;4.90;4.50;;;;;;;14.15;98.34;96797.72;5057909;28;20223;-48
2022/05/11 02:58:28;;;;;;;5.03;4.63;;;;;;;14.13;98.14;96797.06;5057688;28;20231;-49
2022/05/11 03:00:59;;;;;;;5.10;4.37;;;;;;;14.12;97.77;96802.53;5057724;28;20206;-48
2022/05/11 03:03:33;;;;;;;5.70;4.57;;;;;;;14.06;99.12;96800.50;5056589;28;20195;-47
2022/05/11 03:06:06;;;;;;;5.10;4.60;;;;;;;13.98;99.16;96797.81;5057355;28;20199;-49
2022/05/11 03:08:35;;;;;;;5.90;5.10;;;;;;;14.02;98.70;96789.38;5057891;28;20192;-48
2022/05/11 03:11:02;;;;;;;5.10;4.70;;;;;;;13.95;98.87;96796.31;5044461;28;20235;-49
2022/05/11 03:13:30;;;;;;;4.60;4.30;;;;;;;13.88;99.31;96788.16;5057954;28;20207;-49
2022/05/11 03:15:58;;;;;;;4.70;4.07;;;;;;;13.89;99.00;96795.13;5057618;28;20199;-49
2022/05/11 03:18:24;;;;;;;5.17;4.67;;;;;;;13.85;100.00;96787.66;5057547;28;20222;-49
2022/05/11 03:20:52;;;;;;;4.70;4.30;;;;;;;13.80;99.96;96789.94;5057426;28;20674;-48
2022/05/11 03:23:25;;;;;;;6.00;5.03;;;;;;;13.78;100.00;96803.38;5057067;28;20684;-49
2022/05/11 03:25:54;;;;;;;5.13;4.73;;;;;;;13.76;100.00;96800.06;5057089;28;20206;-48
2022/05/11 03:28:22;;;;;;;4.70;4.40;;;;;;;13.74;100.00;96802.06;5056841;28;20203;-48
2022/05/11 03:30:52;;;;;;;5.57;5.03;;;;;;;13.70;100.00;96790.06;5057292;28;20214;-48
2022/05/11 03:36:03;;;;;;;5.20;4.80;;;;;;;13.73;100.00;96799.53;5056839;28;20288;-48
2022/05/11 03:38:31;;;;;;;6.70;5.13;;;;;;;13.67;100.00;96800.19;5056570;28;20234;-48
2022/05/11 03:40:58;;;;;;;5.80;4.77;;;;;;;13.68;100.00;96797.34;5056779;28;20211;-49
2022/05/11 03:43:26;;;;;;;5.07;4.67;;;;;;;13.69;100.00;96793.69;5056216;28;20598;-48
2022/05/11 03:45:52;;;;;;;4.60;4.30;;;;;;;13.66;100.00;96804.66;5057005;28;20207;-49
2022/05/11 03:48:19;;;;;;;4.90;4.43;;;;;;;13.60;100.00;96794.66;5057152;28;20207;-49
2022/05/11 03:50:45;;;;;;;5.47;4.97;;;;;;;13.58;100.00;96799.28;5057251;28;20546;-47
2022/05/11 03:53:12;;;;;;;4.53;4.20;;;;;;;13.53;100.00;96793.63;5060121;28;20216;-49
2022/05/11 03:55:40;;;;;;;4.77;4.47;;;;;;;13.49;100.00;96794.94;5059534;28;20578;-49
2022/05/11 03:58:07;;;;;;;4.80;4.50;;;;;;;13.49;100.00;96797.59;5057964;28;20592;-49
2022/05/11 04:00:33;;;;;;;5.43;4.67;;;;;;;13.42;100.00;96800.03;5056485;28;20199;-48
2022/05/11 04:03:01;;;;;;;4.83;4.53;;;;;;;13.41;100.00;96795.72;5056402;28;20199;-49
2022/05/11 04:05:28;;;;;;;5.00;4.50;;;;;;;13.36;100.00;96794.50;5056167;28;20214;-50
2022/05/11 04:07:55;;;;;;;4.80;4.40;;;;;;;13.31;100.00;96794.16;5056239;28;20211;-49
2022/05/11 04:10:21;;;;;;;4.60;4.30;;;;;;;13.32;100.00;96807.25;5056421;28;20202;-49
2022/05/11 04:12:49;;;;;;;5.00;4.70;;;;;;;13.39;100.00;96808.28;5056185;28;20203;-49
2022/05/11 04:15:17;;;;;;;5.97;4.53;;;;;;;13.38;100.00;96808.47;5056012;28;20217;-49
2022/05/11 04:17:44;;;;;;;5.27;4.80;;;;;;;13.39;100.00;96805.63;5056208;28;20216;-49
2022/05/11 04:20:14;;;;;;;4.70;4.40;;;;;;;13.46;100.00;96804.03;5056230;28;20546;-48
2022/05/11 04:22:40;;;;;;;4.83;4.43;;;;;;;13.43;100.00;96806.16;5056517;28;20234;-49
2022/05/11 04:25:15;;;;;;;5.87;4.60;;;;;;;13.47;100.00;96804.88;5055887;28;20210;-49
2022/05/11 04:27:42;;;;;;;4.80;4.40;;;;;;;13.51;100.00;96810.69;5068274;28;20191;-48
2022/05/11 04:30:11;;;;;;;5.03;4.73;;;;;;;13.64;100.00;96817.25;5074950;28;20192;-48
2022/05/11 04:32:37;;;;;;;5.50;5.10;;;;;;;13.72;100.00;96817.31;5073840;28;20195;-48
2022/05/11 04:35:05;;;;;;;5.60;5.00;;;;;;;13.68;100.00;96815.94;5058184;28;20223;-48
2022/05/11 04:37:31;;;;;;;5.57;5.10;;;;;;;13.69;100.00;96814.97;5056395;28;20615;-48
2022/05/11 04:39:58;;;;;;;4.93;4.63;;;;;;;13.78;100.00;96814.00;5055797;28;20353;-48
2022/05/11 04:42:25;;;;;;;5.40;5.00;;;;;;;13.88;100.00;96812.09;5056543;28;20203;-49
2022/05/11 04:44:57;;;;;;;5.00;4.70;;;;;;;14.01;99.38;96818.75;5055779;28;20207;-48
2022/05/11 04:47:24;;;;;;;6.10;5.17;;;;;;;14.19;99.05;96816.84;5055860;28;20245;-49
2022/05/11 04:49:53;;;;;;;5.03;4.73;;;;;;;14.53;96.85;96816.78;5055976;28;20203;-49
2022/05/11 04:52:20;;;;;;;5.47;4.80;;;;;;;14.80;94.61;96822.69;5056386;28;20241;-49
2022/05/11 04:54:49;;;;;;;4.90;4.50;;;;;;;15.05;93.21;96830.69;5055471;28;20659;-48
2022/05/11 04:57:16;;;;;;;5.63;4.80;;;;;;;15.02;92.69;96821.19;5055540;28;20237;-50
2022/05/11 04:59:43;;;;;;;4.80;4.40;;;;;;;14.98;93.43;96829.69;5055360;28;20828;-49
2022/05/11 05:02:15;;;;;;;4.97;4.57;;;;;;;15.09;93.77;96826.69;5055526;28;20214;-49
2022/05/11 05:04:45;;;;;;;5.17;4.77;;;;;;;15.62;91.75;96827.00;5044803;28;20212;-49
2022/05/11 05:07:14;;;;;;;5.40;4.93;;;;;;;16.21;87.78;96824.81;5051042;28;20219;-48
2022/05/11 05:09:41;;;;;;;5.20;4.80;;;;;;;16.53;84.70;96823.81;5055236;28;20708;-49
2022/05/11 05:12:09;;;;;;;5.07;4.63;;;;;;;16.57;85.67;96823.34;5055391;28;20294;-49
2022/05/11 05:14:35;;;;;;;5.67;5.17;;;;;;;16.78;84.00;96828.88;5055017;28;20203;-49
2022/05/11 05:17:05;;;;;;;5.37;4.90;;;;;;;16.64;85.84;96834.13;5055021;28;20207;-49
2022/05/11 05:19:32;;;;;;;5.17;4.77;;;;;;;17.00;83.55;96831.75;5054063;28;20234;-48
2022/05/11 05:22:03;;;;;;;5.47;5.07;;;;;;;17.30;82.54;96837.00;5054804;28;20245;-48
2022/05/11 05:24:30;;;;;;;6.22;5.38;;;;;;;17.40;82.65;96844.75;5054989;28;20203;-49
2022/05/11 05:26:58;;;;;;;5.80;5.30;;;;;;;17.61;81.68;96842.25;5054401;28;20701;-48
2022/05/11 05:32:11;;;;;;;6.30;5.70;;;;;;;17.89;80.58;96845.97;5041902;28;20206;-50
2022/05/11 05:34:38;;;;;;;8.20;5.75;;;;;;;18.16;79.74;96846.38;5054676;28;20636;-49
2022/05/11 05:37:06;;;;;;;6.47;5.80;;;;;;;18.05;80.13;96846.81;5054863;28;20210;-49
2022/05/11 05:39:33;;;;;;;5.93;5.53;;;;;;;18.36;78.78;96852.81;5054706;28;20226;-49
2022/05/11 05:42:00;;;;;;;6.03;5.50;;;;;;;18.81;76.70;96847.19;5054953;28;20654;-49
2022/05/11 05:44:31;;;;;;;6.80;5.65;;;;;;;18.69;79.49;96853.25;5055001;28;20214;-49
2022/05/11 05:46:57;;;;;;;6.47;5.85;;;;;;;18.99;75.68;96854.00;5054877;28;20282;-49
2022/05/11 05:49:25;;;;;;;5.78;5.38;;;;;;;19.07;76.38;96848.50;5054433;28;20349;-49
2022/05/11 05:51:52;;;;;;;6.93;5.55;;;;;;;19.20;75.33;96852.16;5054689;28;20203;-49
2022/05/11 05:54:21;;;;;;;8.00;5.20;;;;;;;19.60;70.34;96858.72;5056289;28;20219;-48
2022/05/11 05:56:47;;;;;;;5.97;5.30;;;;;;;20.07;69.70;96858.06;5055980;28;20206;-49
2022/05/11 05:59:16;;;;;;;5.80;4.68;;;;;;;20.13;67.45;96854.56;5055344;28;20238;-49
2022/05/11 06:01:42;;;;;;;5.57;5.05;;;;;;;20.54;68.94;96854.63;5054903;28;20210;-49
2022/05/11 06:04:09;;;;;;;5.82;5.00;;;;;;;20.58;69.34;96850.50;5055997;28;20199;-50
2022/05/11 06:06:36;;;;;;;5.25;4.78;;;;;;;20.72;69.11;96844.16;5055767;28;20200;-49
2022/05/11 06:09:03;;;;;;;5.43;5.00;;;;;;;20.89;67.92;96849.16;5055008;28;20195;-50
2022/05/11 06:11:31;;;;;;;5.18;4.65;;;;;;;21.01;68.61;96847.56;5054368;28;20206;-48
2022/05/11 06:13:59;;;;;;;6.68;5.03;;;;;;;21.39;66.66;96846.00;5053944;28;20642;-49
2022/05/11 06:16:26;;;;;;;5.53;5.10;;;;;;;21.35;65.67;96850.13;5054201;28;20210;-49
2022/05/11 06:18:54;;;;;;;5.35;4.93;;;;;;;21.67;64.67;96854.72;5054335;28;20223;-49
2022/05/11 06:21:21;;;;;;;5.47;4.57;;;;;;;21.91;64.63;96844.34;5054422;28;20272;-49
2022/05/11 06:23:48;;;;;;;5.00;4.47;;;;;;;21.90;62.39;96850.75;5054576;28;20207;-49
2022/05/11 06:26:21;;;;;;;4.93;4.32;;;;;;;22.33;59.79;96850.09;5054339;28;20540;-49
2022/05/11 06:28:50;;;;;;;5.18;4.47;;;;;;;22.72;59.80;96843.75;5054528;28;20219;-49
2022/05/11 06:31:18;;;;;;;5.45;4.05;;;;;;;22.63;58.43;96845.03;5054154;28;20207;-49
2022/05/11 06:33:46;;;;;;;4.40;4.00;;;;;;;22.65;59.57;96856.41;5054381;28;20274;-48
2022/05/11 06:36:12;;;;;;;8.00;4.43;;;;;;;22.78;59.82;96853.66;5054290;28;20203;-50
2022/05/11 06:38:39;;;;;;;4.30;3.90;;;;;;;22.93;61.60;96845.31;5057993;28;20223;-49
2022/05/11 06:41:10;;;;;;;4.75;3.80;;;;;;;23.19;56.47;96849.72;5057830;28;20215;-49
2022/05/11 06:43:36;;;;;;;5.95;4.45;;;;;;;23.33;55.96;96845.91;5057934;28;20207;-49
2022/05/11 06:46:04;;;;;;;5.47;4.20;;;;;;;23.66;57.63;96849.22;5058077;28;20211;-50
2022/05/11 06:48:32;;;;;;;5.22;3.90;;;;;;;23.54;57.52;96842.06;5075838;28;20207;-48
2022/05/11 06:51:01;;;;;;;4.22;3.85;;;;;;;24.04;55.22;96843.69;5079331;28;20187;-49
2022/05/11 06:59:16;;;;;;;4.03;3.72;;;;;;;24.36;53.48;96838.19;5078223;28;20195;-48
2022/05/11 07:01:44;;;;;;;5.25;3.80;;;;;;;24.18;55.14;96836.31;5057367;28;20198;-48
2022/05/11 07:04:11;;;;;;;6.45;3.22;;;;;;;24.49;54.57;96828.06;5056723;28;20203;-49
2022/05/11 07:06:41;;;;;;;3.63;3.15;;;;;;;24.47;52.88;96826.66;5057719;28;20209;-50
2022/05/11 07:09:07;;;;;;;4.07;3.47;;;;;;;24.57;50.96;96821.53;5057532;28;20691;-48
2022/05/11 07:14:19;;;;;;;3.75;3.05;;;;;;;25.26;51.29;96826.44;5044501;28;20198;-50
2022/05/11 07:16:47;;;;;;;7.97;3.25;;;;;;;25.27;48.97;96818.09;5057272;28;20222;-48
2022/05/11 07:19:14;;;;;;;3.33;3.10;;;;;;;25.47;49.07;96825.91;5056205;28;20226;-50
2022/05/11 07:21:40;;;;;;;4.35;3.17;;;;;;;25.70;49.50;96819.75;5056794;28;20247;-48
2022/05/11 07:24:07;;;;;;;4.10;3.00;;;;;;;25.79;49.44;96812.91;5057176;28;20207;-49
2022/05/11 07:26:34;;;;;;;3.95;3.00;;;;;;;25.97;49.41;96812.00;5057162;28;20199;-49
2022/05/11 07:29:01;;;;;;;3.13;2.85;;;;;;;25.91;46.81;96812.94;5057283;28;20214;-49
2022/05/11 07:31:27;;;;;;;3.03;2.67;;;;;;;26.24;48.81;96810.50;5057147;28;20207;-51
2022/05/11 07:33:56;;;;;;;3.38;3.00;;;;;;;26.26;48.04;96821.91;5056766;28;20598;-48
2022/05/11 07:36:24;;;;;;;3.17;2.88;;;;;;;26.47;45.60;96813.16;5056658;28;20202;-49
2022/05/11 07:38:51;;;;;;;4.47;3.05;;;;;;;26.48;44.09;96809.38;5057114;28;20231;-48
2022/05/11 07:41:20;;;;;;;4.18;3.08;;;;;;;26.58;46.86;96817.72;5057090;28;20219;-50
2022/05/11 07:43:46;;;;;;;2.90;2.70;;;;;;;26.39;45.89;96818.97;5056859;28;20682;-50
2022/05/11 07:46:12;;;;;;;3.75;2.92;;;;;;;26.63;44.17;96812.44;5056758;28;20210;-49
2022/05/11 07:48:39;;;;;;;3.53;3.22;;;;;;;26.57;44.89;96809.84;5056234;28;20204;-50
2022/05/11 07:51:07;;;;;;;5.00;2.85;;;;;;;26.71;45.68;96809.31;5063088;28;20203;-51
2022/05/11 07:53:34;;;;;;;3.70;3.25;;;;;;;27.25;43.34;96800.88;5064883;28;20222;-50
2022/05/11 08:01:30;;;;;;;2.67;2.58;;;;;;;27.68;39.98;96809.25;5044907;28;20201;-50
2022/05/11 08:03:57;;;;;;;3.72;3.03;;;;;;;27.80;41.22;96810.03;5056413;28;20207;-49
2022/05/11 08:06:25;;;;;;;3.60;2.60;;;;;;;27.53;38.22;96801.69;5056375;28;20204;-50
2022/05/11 08:08:52;;;;;;;2.95;2.70;;;;;;;27.51;41.26;96803.84;5055936;28;20211;-49
2022/05/11 08:11:18;;;;;;;2.88;2.78;;;;;;;27.36;42.96;96800.81;5055892;28;20207;-50
2022/05/11 08:13:44;;;;;;;2.95;2.60;;;;;;;27.80;44.09;96806.47;5056340;28;20207;-52
2022/05/11 08:16:11;;;;;;;2.92;2.72;;;;;;;27.75;41.30;96809.09;5056043;28;20211;-50
2022/05/11 08:18:38;;;;;;;3.13;2.83;;;;;;;27.44;39.76;96796.88;5056505;28;20235;-50
2022/05/11 08:21:06;;;;;;;2.85;2.65;;;;;;;27.81;41.98;96798.06;5056334;28;20230;-50
2022/05/11 08:23:34;;;;;;;7.75;2.65;;;;;;;27.93;41.53;96792.53;5055701;28;20250;-50
2022/05/11 08:26:01;;;;;;;8.02;4.90;;;;;;;28.40;39.00;96796.53;5056013;28;20679;-49
2022/05/11 08:28:28;;;;;;;2.97;2.78;;;;;;;27.93;39.60;96789.81;5055992;28;20206;-49
2022/05/11 08:33:40;;;;;;;3.83;3.53;;;;;;;28.83;38.47;96786.75;5055831;28;20201;-50
2022/05/11 08:36:08;;;;;;;3.08;2.88;;;;;;;28.78;37.63;96792.13;5055682;28;20207;-51
2022/05/11 08:38:38;;;;;;;2.92;2.72;;;;;;;28.81;38.13;96788.88;5043166;28;20655;-50
2022/05/11 08:41:06;;;;;;;3.72;3.03;;;;;;;28.62;36.76;96783.75;5055782;28;20329;-49
2022/05/11 08:43:36;;;;;;;3.78;2.72;;;;;;;29.01;37.11;96789.13;5056503;28;20203;-49
2022/05/11 08:46:07;;;;;;;3.40;3.20;;;;;;;29.03;37.51;96785.06;5056386;28;20221;-49
2022/05/11 08:48:45;;;;;;;3.15;2.80;;;;;;;29.19;37.66;96782.50;5075501;28;20194;-49
2022/05/11 08:51:19;;;;;;;3.10;2.80;;;;;;;29.22;37.61;96782.81;5073088;28;20206;-49
2022/05/11 08:53:49;;;;;;;3.10;2.75;;;;;;;28.69;38.02;96778.16;5071111;28;20198;-49
2022/05/11 08:56:17;;;;;;;4.40;2.85;;;;;;;28.78;37.23;96782.06;5078424;28;20195;-50
2022/05/11 08:58:48;;;;;;;3.25;3.03;;;;;;;28.66;38.32;96782.16;5063447;28;20214;-49
2022/05/11 09:01:19;;;;;;;3.33;2.97;;;;;;;28.59;36.62;96769.84;5061553;28;20215;-51
2022/05/11 09:03:46;;;;;;;4.38;3.00;;;;;;;28.74;35.89;96775.47;5062469;28;20204;-49
2022/05/11 09:06:18;;;;;;;3.30;3.00;;;;;;;28.55;38.85;96772.25;5065802;28;20734;-48
2022/05/11 09:08:47;;;;;;;3.30;3.00;;;;;;;28.79;38.42;96772.00;5068207;28;20187;-49
2022/05/11 09:11:16;;;;;;;3.22;2.90;;;;;;;29.05;38.40;96777.44;5064989;28;20191;-49
2022/05/11 09:13:44;;;;;;;3.53;3.20;;;;;;;28.73;36.49;96762.97;5076040;28;20195;-50
2022/05/11 09:16:20;;;;;;;3.40;3.10;;;;;;;28.50;37.32;96777.59;5070323;28;20278;-48
2022/05/11 09:18:46;;;;;;;3.60;3.28;;;;;;;28.23;37.29;96774.00;5055879;28;20604;-48
2022/05/11 09:21:22;;;;;;;4.32;3.97;;;;;;;28.32;38.01;96775.19;5055440;28;20284;-49
2022/05/11 09:24:05;;;;;;;5.70;3.10;;;;;;;28.43;34.96;96771.53;5055782;28;20191;-50
2022/05/11 09:26:34;;;;;;;3.83;3.47;;;;;;;28.32;39.40;96767.03;5055819;28;20535;-49
2022/05/11 09:29:18;;;;;;;3.85;3.47;;;;;;;28.38;36.80;96767.91;5055704;28;20207;-49
2022/05/11 09:31:46;;;;;;;4.05;3.53;;;;;;;28.31;36.95;96764.53;5056115;28;20249;-49
2022/05/11 09:34:16;;;;;;;3.72;3.42;;;;;;;28.33;38.86;96762.41;5055047;28;20207;-50
2022/05/11 09:36:52;;;;;;;3.70;3.20;;;;;;;28.41;36.74;96762.78;5054592;28;20224;-49
2022/05/11 09:39:23;;;;;;;3.58;3.20;;;;;;;28.42;36.69;96767.16;5054474;28;20199;-49
2022/05/11 09:41:51;;;;;;;3.80;3.50;;;;;;;27.94;37.17;96764.28;5054811;28;20203;-49
2022/05/11 09:44:20;;;;;;;3.35;3.10;;;;;;;28.45;38.52;96755.75;5054797;28;20639;-48
2022/05/11 09:46:47;;;;;;;3.65;3.35;;;;;;;28.79;39.00;96761.09;5055011;28;20207;-49
2022/05/11 09:49:26;;;;;;;3.47;3.15;;;;;;;29.11;37.22;96757.38;5054743;28;20202;-49
2022/05/11 09:51:56;;;;;;;2.90;2.70;;;;;;;29.15;36.66;96754.97;5054630;28;20211;-50
2022/05/11 09:54:29;;;;;;;3.60;3.30;;;;;;;29.03;36.89;96749.66;5054532;28;21460;-50
2022/05/11 09:56:59;;;;;;;4.10;3.00;;;;;;;28.93;37.90;96749.56;5054914;28;20191;-49
2022/05/11 09:59:29;;;;;;;3.10;2.90;;;;;;;28.82;37.67;96745.09;5054948;28;20209;-48
2022/05/11 10:02:01;;;;;;;3.50;3.20;;;;;;;29.03;37.79;96735.22;5054376;28;20221;-49
2022/05/11 10:04:34;;;;;;;3.20;3.00;;;;;;;28.92;37.06;96738.91;5054734;28;20259;-50
2022/05/11 10:07:01;;;;;;;4.60;2.60;;;;;;;29.10;36.55;96735.84;5054359;28;20643;-50
2022/05/11 10:09:30;;;;;;;3.65;3.20;;;;;;;29.54;38.10;96737.38;5054180;28;20213;-50
2022/05/11 10:11:57;;;;;;;3.00;2.80;;;;;;;29.58;35.83;96730.28;5055771;28;20211;-49
2022/05/11 10:23:02;;;;;;;3.30;3.00;;;;;;;29.48;35.17;96729.38;5036966;28;20329;-50
2022/05/11 10:25:33;;;;;;;3.13;2.80;;;;;;;29.22;35.82;96717.44;5032262;28;20204;-49
2022/05/11 10:28:05;;;;;;;3.10;2.90;;;;;;;29.23;35.21;96724.50;5040339;28;20199;-49
2022/05/11 10:30:39;;;;;;;4.10;3.15;;;;;;;29.20;36.73;96722.31;5045453;28;20309;-49
2022/05/11 10:33:37;;;;;;;2.80;2.60;;;;;;;29.02;35.45;96719.94;5058286;28;20287;-49
2022/05/11 10:36:06;;;;;;;2.80;2.42;;;;;;;29.28;37.39;96715.59;5052462;28;20202;-49
2022/05/11 10:38:41;;;;;;;2.88;2.67;;;;;;;29.46;36.64;96707.84;5058575;28;20218;-50
2022/05/11 10:41:29;;;;;;;2.78;2.58;;;;;;;29.78;35.77;96715.16;5058341;28;20274;-51
2022/05/11 10:44:02;;;;;;;4.97;3.03;;;;;;;29.60;35.54;96700.06;5058309;28;20287;-50
2022/05/11 10:46:35;;;;;;;2.90;2.70;;;;;;;29.89;35.79;96708.72;5058414;28;20199;-49
2022/05/11 10:49:32;;;;;;;4.00;3.58;;;;;;;29.99;35.26;96703.34;5057618;28;20667;-49
2022/05/11 10:52:10;;;;;;;3.03;2.80;;;;;;;30.06;31.13;96691.09;5048073;28;20238;-49
2022/05/11 10:54:45;;;;;;;3.13;2.80;;;;;;;29.70;32.59;96696.56;5057669;28;20210;-49
2022/05/11 10:57:19;;;;;;;3.13;2.92;;;;;;;30.15;34.48;96696.84;5057333;28;20646;-49
2022/05/11 11:00:07;;;;;;;2.60;2.50;;;;;;;30.21;30.96;96682.19;5044411;28;20225;-50
2022/05/11 11:03:10;;;;;;;3.00;2.70;;;;;;;30.22;32.18;96672.09;5057188;28;20650;-49
2022/05/11 11:05:47;;;;;;;2.92;2.60;;;;;;;30.44;35.45;96670.81;5057360;28;20218;-49
2022/05/11 11:08:18;;;;;;;3.83;2.60;;;;;;;30.58;33.14;96669.22;5057537;28;20209;-49
2022/05/11 11:10:48;;;;;;;2.80;2.60;;;;;;;30.53;33.67;96663.78;5057543;28;20191;-51
2022/05/11 11:13:44;;;;;;;2.65;2.45;;;;;;;30.21;30.52;96670.44;5057553;28;20210;-50
2022/05/11 11:16:13;;;;;;;2.53;2.35;;;;;;;30.41;32.13;96665.91;5046208;28;20539;-49
2022/05/11 11:18:44;;;;;;;2.55;2.35;;;;;;;30.22;29.63;96667.44;5056355;28;20246;-50
2022/05/11 11:21:12;;;;;;;3.33;2.67;;;;;;;30.06;31.77;96660.28;5057136;28;20226;-50
2022/05/11 11:23:40;;;;;;;3.63;2.50;;;;;;;29.88;30.24;96660.72;5055996;28;20246;-50
2022/05/11 11:26:09;;;;;;;2.75;2.50;;;;;;;29.79;30.95;96657.66;5060369;28;20230;-49
2022/05/11 11:29:13;;;;;;;5.85;2.70;;;;;;;29.63;32.63;96658.63;5078831;28;20207;-49
2022/05/11 11:32:15;;;;;;;4.82;2.70;;;;;;;29.74;32.79;96648.63;5074899;28;20192;-49
2022/05/11 11:34:46;;;;;;;2.78;2.50;;;;;;;29.94;34.78;96644.13;5050734;28;20257;-49
2022/05/11 11:37:45;;;;;;;2.42;2.33;;;;;;;30.24;34.26;96646.16;5057158;28;20206;-50
2022/05/11 11:40:33;;;;;;;2.67;2.47;;;;;;;30.28;31.78;96641.00;5043847;28;20226;-50
2022/05/11 11:43:38;;;;;;;2.33;2.22;;;;;;;30.32;31.31;96632.03;5053498;28;20203;-49
2022/05/11 11:46:06;;;;;;;2.92;2.53;;;;;;;30.37;32.62;96637.47;5056341;28;20612;-49
2022/05/11 11:48:38;;;;;;;2.03;1.92;;;;;;;30.61;33.40;96630.47;5045407;28;20534;-51
2022/05/11 11:51:12;;;;;;;2.90;2.70;;;;;;;30.72;31.94;96633.22;5056792;28;20240;-50
2022/05/11 11:53:43;;;;;;;2.40;2.25;;;;;;;30.57;27.84;96631.31;5056576;28;20580;-50
2022/05/11 11:56:33;;;;;;;2.78;2.58;;;;;;;30.32;29.12;96623.84;5059248;28;20199;-49
2022/05/11 11:59:04;;;;;;;3.05;2.50;;;;;;;30.28;32.11;96622.72;5062680;28;20214;-50
2022/05/11 12:01:32;;;;;;;3.70;2.33;;;;;;;30.53;32.74;96614.63;5061259;28;20562;-49
2022/05/11 12:04:01;;;;;;;4.15;2.38;;;;;;;30.53;31.19;96614.63;5056401;28;20659;-51
2022/05/11 12:15:15;;;;;;;2.90;2.15;;;;;;;30.28;28.87;96609.09;5056452;28;20215;-49
2022/05/11 12:17:42;;;;;;;3.15;2.28;;;;;;;29.94;28.19;96594.22;5044644;28;20206;-49
2022/05/11 12:20:14;;;;;;;2.20;2.00;;;;;;;30.15;29.88;96590.47;5056263;28;20218;-50
2022/05/11 12:22:45;;;;;;;2.47;2.38;;;;;;;29.98;31.52;96589.88;5055649;28;20234;-50
2022/05/11 12:25:20;;;;;;;3.05;2.40;;;;;;;30.07;30.49;96591.00;5056323;28;20567;-50